sensor_id;sensor_type;location;lat;lon;timestamp;temperature;humidity
74294;DHT22;64044;59.904;10.738;2023-12-04T00:01:13;-8.20;57.00
74294;DHT22;64044;59.904;10.738;2023-12-04T00:03:39;-8.20;57.10
74294;DHT22;64044;59.904;10.738;2023-12-04T00:06:05;-8.10;57.10
74294;DHT22;64044;59.904;10.738;2023-12-04T00:08:32;-8.20;57.20
74294;DHT22;64044;59.904;10.738;2023-12-04T00:10:57;-8.10;57.10
74294;DHT22;64044;59.904;10.738;2023-12-04T00:13:23;-8.20;57.40
74294;DHT22;64044;59.904;10.738;2023-12-04T00:15:49;-8.20;57.20
74294;DHT22;64044;59.904;10.738;2023-12-04T00:18:15;-8.20;57.20
74294;DHT22;64044;59.904;10.738;2023-12-04T00:20:41;-8.20;57.20
74294;DHT22;64044;59.904;10.738;2023-12-04T00:23:06;-8.20;57.30
74294;DHT22;64044;59.904;10.738;2023-12-04T00:25:32;-8.20;57.50
74294;DHT22;64044;59.904;10.738;2023-12-04T00:27:58;-8.20;57.40
74294;DHT22;64044;59.904;10.738;2023-12-04T00:30:23;-8.20;57.30
74294;DHT22;64044;59.904;10.738;2023-12-04T00:32:49;-8.20;57.20
74294;DHT22;64044;59.904;10.738;2023-12-04T00:35:15;-8.20;57.50
74294;DHT22;64044;59.904;10.738;2023-12-04T00:37:41;-8.20;57.50
74294;DHT22;64044;59.904;10.738;2023-12-04T00:40:07;-8.20;57.60
74294;DHT22;64044;59.904;10.738;2023-12-04T00:42:33;-8.20;57.80
74294;DHT22;64044;59.904;10.738;2023-12-04T00:44:59;-8.20;57.80
74294;DHT22;64044;59.904;10.738;2023-12-04T00:47:24;-8.20;57.70
74294;DHT22;64044;59.904;10.738;2023-12-04T00:49:50;-8.20;57.80
74294;DHT22;64044;59.904;10.738;2023-12-04T00:52:16;-8.20;57.90
74294;DHT22;64044;59.904;10.738;2023-12-04T00:54:41;-8.20;58.00
74294;DHT22;64044;59.904;10.738;2023-12-04T00:57:09;-8.20;57.80
74294;DHT22;64044;59.904;10.738;2023-12-04T00:59:34;-8.20;58.30
74294;DHT22;64044;59.904;10.738;2023-12-04T01:02:00;-8.20;58.90
74294;DHT22;64044;59.904;10.738;2023-12-04T01:04:26;-8.20;58.80
74294;DHT22;64044;59.904;10.738;2023-12-04T01:06:52;-8.10;58.80
74294;DHT22;64044;59.904;10.738;2023-12-04T01:09:18;-8.10;58.50
74294;DHT22;64044;59.904;10.738;2023-12-04T01:11:51;-8.10;58.60
74294;DHT22;64044;59.904;10.738;2023-12-04T01:14:17;-8.10;58.50
74294;DHT22;64044;59.904;10.738;2023-12-04T01:16:43;-8.10;58.10
74294;DHT22;64044;59.904;10.738;2023-12-04T01:19:08;-8.10;58.10
74294;DHT22;64044;59.904;10.738;2023-12-04T01:21:34;-8.10;58.80
74294;DHT22;64044;59.904;10.738;2023-12-04T01:24:00;-8.10;58.10
74294;DHT22;64044;59.904;10.738;2023-12-04T01:26:26;-8.10;58.40
74294;DHT22;64044;59.904;10.738;2023-12-04T01:28:51;-8.00;58.50
74294;DHT22;64044;59.904;10.738;2023-12-04T01:31:17;-8.10;58.30
74294;DHT22;64044;59.904;10.738;2023-12-04T01:33:43;-8.00;58.10
74294;DHT22;64044;59.904;10.738;2023-12-04T01:36:09;-8.00;57.90
74294;DHT22;64044;59.904;10.738;2023-12-04T01:38:34;-8.00;58.10
74294;DHT22;64044;59.904;10.738;2023-12-04T01:41:00;-8.00;58.10
74294;DHT22;64044;59.904;10.738;2023-12-04T01:43:26;-8.00;58.10
74294;DHT22;64044;59.904;10.738;2023-12-04T01:45:53;-8.00;58.30
74294;DHT22;64044;59.904;10.738;2023-12-04T01:48:20;-8.00;58.50
74294;DHT22;64044;59.904;10.738;2023-12-04T01:50:46;-8.00;58.70
74294;DHT22;64044;59.904;10.738;2023-12-04T01:53:12;-8.00;58.90
74294;DHT22;64044;59.904;10.738;2023-12-04T01:55:38;-7.90;59.00
74294;DHT22;64044;59.904;10.738;2023-12-04T01:58:04;-8.00;58.70
74294;DHT22;64044;59.904;10.738;2023-12-04T02:00:31;-7.90;59.00
74294;DHT22;64044;59.904;10.738;2023-12-04T02:02:58;-7.90;59.20
74294;DHT22;64044;59.904;10.738;2023-12-04T02:05:26;-7.90;59.20
74294;DHT22;64044;59.904;10.738;2023-12-04T02:07:53;-7.90;59.00
74294;DHT22;64044;59.904;10.738;2023-12-04T02:10:19;-7.90;58.60
74294;DHT22;64044;59.904;10.738;2023-12-04T02:12:45;-7.90;58.80
74294;DHT22;64044;59.904;10.738;2023-12-04T02:15:11;-7.90;58.80
74294;DHT22;64044;59.904;10.738;2023-12-04T02:17:37;-7.90;59.10
74294;DHT22;64044;59.904;10.738;2023-12-04T02:20:05;-7.90;59.30
74294;DHT22;64044;59.904;10.738;2023-12-04T02:22:31;-7.90;59.20
74294;DHT22;64044;59.904;10.738;2023-12-04T02:24:57;-7.90;59.20
74294;DHT22;64044;59.904;10.738;2023-12-04T02:27:33;-7.90;59.20
74294;DHT22;64044;59.904;10.738;2023-12-04T02:30:00;-7.90;59.00
74294;DHT22;64044;59.904;10.738;2023-12-04T02:32:31;-7.90;58.90
74294;DHT22;64044;59.904;10.738;2023-12-04T02:35:03;-7.90;59.00
74294;DHT22;64044;59.904;10.738;2023-12-04T02:37:29;-7.90;58.90
74294;DHT22;64044;59.904;10.738;2023-12-04T02:39:56;-7.80;59.10
74294;DHT22;64044;59.904;10.738;2023-12-04T02:42:24;-7.90;58.80
74294;DHT22;64044;59.904;10.738;2023-12-04T02:44:51;-7.90;58.70
74294;DHT22;64044;59.904;10.738;2023-12-04T02:47:17;-7.90;58.80
74294;DHT22;64044;59.904;10.738;2023-12-04T02:49:43;-7.90;58.70
74294;DHT22;64044;59.904;10.738;2023-12-04T02:52:09;-7.90;58.60
74294;DHT22;64044;59.904;10.738;2023-12-04T02:54:34;-7.90;58.70
74294;DHT22;64044;59.904;10.738;2023-12-04T02:57:00;-7.90;58.70
74294;DHT22;64044;59.904;10.738;2023-12-04T02:59:26;-7.90;58.70
74294;DHT22;64044;59.904;10.738;2023-12-04T03:01:52;-7.90;58.70
74294;DHT22;64044;59.904;10.738;2023-12-04T03:04:19;-7.90;58.60
74294;DHT22;64044;59.904;10.738;2023-12-04T03:06:45;-7.90;58.60
74294;DHT22;64044;59.904;10.738;2023-12-04T03:09:11;-7.90;58.50
74294;DHT22;64044;59.904;10.738;2023-12-04T03:11:40;-7.90;58.50
74294;DHT22;64044;59.904;10.738;2023-12-04T03:14:06;-7.90;58.40
74294;DHT22;64044;59.904;10.738;2023-12-04T03:16:32;-7.90;58.60
74294;DHT22;64044;59.904;10.738;2023-12-04T03:18:57;-7.90;58.50
74294;DHT22;64044;59.904;10.738;2023-12-04T03:21:23;-7.90;58.60
74294;DHT22;64044;59.904;10.738;2023-12-04T03:23:49;-7.90;58.70
74294;DHT22;64044;59.904;10.738;2023-12-04T03:26:15;-7.90;58.80
74294;DHT22;64044;59.904;10.738;2023-12-04T03:28:40;-7.90;58.80
74294;DHT22;64044;59.904;10.738;2023-12-04T03:31:07;-7.90;58.90
74294;DHT22;64044;59.904;10.738;2023-12-04T03:33:33;-7.90;58.80
74294;DHT22;64044;59.904;10.738;2023-12-04T03:35:59;-7.90;58.80
74294;DHT22;64044;59.904;10.738;2023-12-04T03:38:25;-7.80;59.00
74294;DHT22;64044;59.904;10.738;2023-12-04T03:40:51;-7.80;59.00
74294;DHT22;64044;59.904;10.738;2023-12-04T03:43:17;-7.80;59.00
74294;DHT22;64044;59.904;10.738;2023-12-04T03:45:43;-7.80;59.00
74294;DHT22;64044;59.904;10.738;2023-12-04T03:48:08;-7.80;59.10
74294;DHT22;64044;59.904;10.738;2023-12-04T03:50:34;-7.80;59.00
74294;DHT22;64044;59.904;10.738;2023-12-04T03:53:00;-7.80;58.80
74294;DHT22;64044;59.904;10.738;2023-12-04T03:55:26;-7.80;58.80
74294;DHT22;64044;59.904;10.738;2023-12-04T03:57:52;-7.80;58.80
74294;DHT22;64044;59.904;10.738;2023-12-04T04:00:18;-7.80;58.80
74294;DHT22;64044;59.904;10.738;2023-12-04T04:02:44;-7.80;58.90
74294;DHT22;64044;59.904;10.738;2023-12-04T04:05:10;-7.80;58.90
74294;DHT22;64044;59.904;10.738;2023-12-04T04:07:36;-7.80;58.90
74294;DHT22;64044;59.904;10.738;2023-12-04T04:10:02;-7.80;58.90
74294;DHT22;64044;59.904;10.738;2023-12-04T04:12:30;-7.80;58.80
74294;DHT22;64044;59.904;10.738;2023-12-04T04:14:56;-7.80;58.80
74294;DHT22;64044;59.904;10.738;2023-12-04T04:17:22;-7.90;58.70
74294;DHT22;64044;59.904;10.738;2023-12-04T04:19:51;-7.90;58.70
74294;DHT22;64044;59.904;10.738;2023-12-04T04:22:17;-7.90;58.80
74294;DHT22;64044;59.904;10.738;2023-12-04T04:24:42;-7.90;58.90
74294;DHT22;64044;59.904;10.738;2023-12-04T04:27:08;-7.90;58.90
74294;DHT22;64044;59.904;10.738;2023-12-04T04:29:34;-7.90;58.80
74294;DHT22;64044;59.904;10.738;2023-12-04T04:32:00;-7.90;58.90
74294;DHT22;64044;59.904;10.738;2023-12-04T04:34:25;-7.90;58.80
74294;DHT22;64044;59.904;10.738;2023-12-04T04:36:51;-7.90;58.80
74294;DHT22;64044;59.904;10.738;2023-12-04T04:39:17;-7.90;58.80
74294;DHT22;64044;59.904;10.738;2023-12-04T04:41:44;-7.90;58.80
74294;DHT22;64044;59.904;10.738;2023-12-04T04:44:10;-7.90;58.80
74294;DHT22;64044;59.904;10.738;2023-12-04T04:46:35;-7.90;58.80
74294;DHT22;64044;59.904;10.738;2023-12-04T04:49:01;-7.90;58.80
74294;DHT22;64044;59.904;10.738;2023-12-04T04:51:28;-7.90;58.80
74294;DHT22;64044;59.904;10.738;2023-12-04T04:53:56;-8.00;58.70
74294;DHT22;64044;59.904;10.738;2023-12-04T04:56:22;-8.00;58.70
74294;DHT22;64044;59.904;10.738;2023-12-04T04:58:48;-8.00;58.70
74294;DHT22;64044;59.904;10.738;2023-12-04T05:01:14;-8.00;58.80
74294;DHT22;64044;59.904;10.738;2023-12-04T05:03:40;-8.00;58.80
74294;DHT22;64044;59.904;10.738;2023-12-04T05:06:06;-8.00;58.90
74294;DHT22;64044;59.904;10.738;2023-12-04T05:08:32;-8.00;58.90
74294;DHT22;64044;59.904;10.738;2023-12-04T05:10:58;-8.00;58.90
74294;DHT22;64044;59.904;10.738;2023-12-04T05:13:24;-8.00;58.90
74294;DHT22;64044;59.904;10.738;2023-12-04T05:15:49;-8.00;59.00
74294;DHT22;64044;59.904;10.738;2023-12-04T05:18:15;-8.00;59.00
74294;DHT22;64044;59.904;10.738;2023-12-04T05:20:41;-8.00;59.00
74294;DHT22;64044;59.904;10.738;2023-12-04T05:23:07;-8.00;59.10
74294;DHT22;64044;59.904;10.738;2023-12-04T05:25:32;-8.00;59.10
74294;DHT22;64044;59.904;10.738;2023-12-04T05:27:58;-8.00;58.90
74294;DHT22;64044;59.904;10.738;2023-12-04T05:30:24;-8.00;58.90
74294;DHT22;64044;59.904;10.738;2023-12-04T05:32:49;-8.00;58.90
74294;DHT22;64044;59.904;10.738;2023-12-04T05:35:15;-8.00;59.00
74294;DHT22;64044;59.904;10.738;2023-12-04T05:37:42;-8.00;59.00
74294;DHT22;64044;59.904;10.738;2023-12-04T05:40:09;-8.00;59.10
74294;DHT22;64044;59.904;10.738;2023-12-04T05:42:36;-8.00;59.20
74294;DHT22;64044;59.904;10.738;2023-12-04T05:45:02;-8.00;59.00
74294;DHT22;64044;59.904;10.738;2023-12-04T05:47:28;-8.00;59.00
74294;DHT22;64044;59.904;10.738;2023-12-04T05:49:54;-8.00;59.10
74294;DHT22;64044;59.904;10.738;2023-12-04T05:52:20;-8.00;59.10
74294;DHT22;64044;59.904;10.738;2023-12-04T05:54:46;-8.00;59.10
74294;DHT22;64044;59.904;10.738;2023-12-04T05:57:12;-8.00;59.00
74294;DHT22;64044;59.904;10.738;2023-12-04T05:59:38;-7.90;59.10
74294;DHT22;64044;59.904;10.738;2023-12-04T06:02:03;-8.00;59.20
74294;DHT22;64044;59.904;10.738;2023-12-04T06:04:29;-8.00;59.20
74294;DHT22;64044;59.904;10.738;2023-12-04T06:06:55;-7.90;59.30
74294;DHT22;64044;59.904;10.738;2023-12-04T06:09:21;-7.90;59.20
74294;DHT22;64044;59.904;10.738;2023-12-04T06:11:46;-8.00;59.10
74294;DHT22;64044;59.904;10.738;2023-12-04T06:14:12;-7.90;59.20
74294;DHT22;64044;59.904;10.738;2023-12-04T06:16:38;-7.90;59.10
74294;DHT22;64044;59.904;10.738;2023-12-04T06:19:04;-7.90;59.00
74294;DHT22;64044;59.904;10.738;2023-12-04T06:21:30;-7.90;59.00
74294;DHT22;64044;59.904;10.738;2023-12-04T06:23:56;-8.00;59.10
74294;DHT22;64044;59.904;10.738;2023-12-04T06:26:23;-7.90;59.00
74294;DHT22;64044;59.904;10.738;2023-12-04T06:28:49;-8.00;59.10
74294;DHT22;64044;59.904;10.738;2023-12-04T06:31:15;-8.00;59.10
74294;DHT22;64044;59.904;10.738;2023-12-04T06:33:41;-8.00;59.20
74294;DHT22;64044;59.904;10.738;2023-12-04T06:36:07;-8.00;59.20
74294;DHT22;64044;59.904;10.738;2023-12-04T06:38:39;-8.00;59.20
74294;DHT22;64044;59.904;10.738;2023-12-04T06:41:06;-7.90;59.30
74294;DHT22;64044;59.904;10.738;2023-12-04T06:43:32;-7.90;59.00
74294;DHT22;64044;59.904;10.738;2023-12-04T06:45:58;-8.00;59.00
74294;DHT22;64044;59.904;10.738;2023-12-04T06:48:25;-8.00;59.00
74294;DHT22;64044;59.904;10.738;2023-12-04T06:50:51;-7.90;59.10
74294;DHT22;64044;59.904;10.738;2023-12-04T06:53:16;-8.00;59.30
74294;DHT22;64044;59.904;10.738;2023-12-04T06:55:42;-8.00;59.40
74294;DHT22;64044;59.904;10.738;2023-12-04T06:58:08;-8.00;59.40
74294;DHT22;64044;59.904;10.738;2023-12-04T07:00:34;-8.00;59.30
74294;DHT22;64044;59.904;10.738;2023-12-04T07:02:59;-8.00;59.20
74294;DHT22;64044;59.904;10.738;2023-12-04T07:05:25;-8.00;59.20
74294;DHT22;64044;59.904;10.738;2023-12-04T07:07:51;-8.00;59.20
74294;DHT22;64044;59.904;10.738;2023-12-04T07:10:17;-8.00;59.20
74294;DHT22;64044;59.904;10.738;2023-12-04T07:13:07;-8.00;59.20
74294;DHT22;64044;59.904;10.738;2023-12-04T07:15:34;-8.00;59.20
74294;DHT22;64044;59.904;10.738;2023-12-04T07:17:59;-8.00;59.10
74294;DHT22;64044;59.904;10.738;2023-12-04T07:20:25;-8.00;59.20
74294;DHT22;64044;59.904;10.738;2023-12-04T07:22:51;-8.00;59.30
74294;DHT22;64044;59.904;10.738;2023-12-04T07:25:17;-8.00;59.30
74294;DHT22;64044;59.904;10.738;2023-12-04T07:27:42;-8.00;59.30
74294;DHT22;64044;59.904;10.738;2023-12-04T07:30:08;-8.00;59.40
74294;DHT22;64044;59.904;10.738;2023-12-04T07:32:34;-8.00;59.40
74294;DHT22;64044;59.904;10.738;2023-12-04T07:35:00;-8.00;59.30
74294;DHT22;64044;59.904;10.738;2023-12-04T07:37:26;-8.00;59.20
74294;DHT22;64044;59.904;10.738;2023-12-04T07:39:52;-8.00;59.20
74294;DHT22;64044;59.904;10.738;2023-12-04T07:42:18;-8.00;59.20
74294;DHT22;64044;59.904;10.738;2023-12-04T07:44:44;-7.90;59.20
74294;DHT22;64044;59.904;10.738;2023-12-04T07:47:09;-8.00;59.20
74294;DHT22;64044;59.904;10.738;2023-12-04T07:49:35;-8.00;59.20
74294;DHT22;64044;59.904;10.738;2023-12-04T07:52:01;-8.00;59.20
74294;DHT22;64044;59.904;10.738;2023-12-04T07:54:27;-7.90;59.20
74294;DHT22;64044;59.904;10.738;2023-12-04T07:56:52;-8.00;59.20
74294;DHT22;64044;59.904;10.738;2023-12-04T07:59:18;-7.90;59.20
74294;DHT22;64044;59.904;10.738;2023-12-04T08:01:44;-7.90;59.20
74294;DHT22;64044;59.904;10.738;2023-12-04T08:04:10;-7.90;59.20
74294;DHT22;64044;59.904;10.738;2023-12-04T08:06:36;-7.90;60.10
74294;DHT22;64044;59.904;10.738;2023-12-04T08:09:02;-7.90;59.80
74294;DHT22;64044;59.904;10.738;2023-12-04T08:11:28;-7.80;59.80
74294;DHT22;64044;59.904;10.738;2023-12-04T08:13:54;-7.80;59.90
74294;DHT22;64044;59.904;10.738;2023-12-04T08:16:19;-7.80;59.80
74294;DHT22;64044;59.904;10.738;2023-12-04T08:18:46;-7.80;60.00
74294;DHT22;64044;59.904;10.738;2023-12-04T08:21:12;-7.80;59.90
74294;DHT22;64044;59.904;10.738;2023-12-04T08:23:38;-7.70;59.90
74294;DHT22;64044;59.904;10.738;2023-12-04T08:26:04;-7.80;59.70
74294;DHT22;64044;59.904;10.738;2023-12-04T08:28:30;-7.70;59.50
74294;DHT22;64044;59.904;10.738;2023-12-04T08:30:56;-7.70;59.40
74294;DHT22;64044;59.904;10.738;2023-12-04T08:33:22;-7.70;59.30
74294;DHT22;64044;59.904;10.738;2023-12-04T08:35:47;-7.70;59.30
74294;DHT22;64044;59.904;10.738;2023-12-04T08:38:14;-7.70;59.20
74294;DHT22;64044;59.904;10.738;2023-12-04T08:40:39;-7.70;59.10
74294;DHT22;64044;59.904;10.738;2023-12-04T08:43:05;-7.70;59.10
74294;DHT22;64044;59.904;10.738;2023-12-04T08:45:31;-7.70;59.10
74294;DHT22;64044;59.904;10.738;2023-12-04T08:47:56;-7.60;59.10
74294;DHT22;64044;59.904;10.738;2023-12-04T08:50:22;-7.60;59.00
74294;DHT22;64044;59.904;10.738;2023-12-04T08:52:50;-7.60;59.10
74294;DHT22;64044;59.904;10.738;2023-12-04T08:55:17;-7.60;59.10
74294;DHT22;64044;59.904;10.738;2023-12-04T08:57:43;-7.50;59.20
74294;DHT22;64044;59.904;10.738;2023-12-04T09:00:09;-7.50;59.40
74294;DHT22;64044;59.904;10.738;2023-12-04T09:02:35;-7.50;59.20
74294;DHT22;64044;59.904;10.738;2023-12-04T09:05:01;-7.40;59.30
74294;DHT22;64044;59.904;10.738;2023-12-04T09:07:26;-7.40;59.30
74294;DHT22;64044;59.904;10.738;2023-12-04T09:09:52;-7.40;59.20
74294;DHT22;64044;59.904;10.738;2023-12-04T09:12:18;-7.30;59.30
74294;DHT22;64044;59.904;10.738;2023-12-04T09:14:44;-7.40;59.20
74294;DHT22;64044;59.904;10.738;2023-12-04T09:17:10;-7.30;59.40
74294;DHT22;64044;59.904;10.738;2023-12-04T09:19:36;-7.30;59.50
74294;DHT22;64044;59.904;10.738;2023-12-04T09:22:01;-7.20;59.50
74294;DHT22;64044;59.904;10.738;2023-12-04T09:24:27;-7.20;59.50
74294;DHT22;64044;59.904;10.738;2023-12-04T09:26:54;-7.20;59.40
74294;DHT22;64044;59.904;10.738;2023-12-04T09:29:20;-7.20;59.30
74294;DHT22;64044;59.904;10.738;2023-12-04T09:31:50;-7.10;59.40
74294;DHT22;64044;59.904;10.738;2023-12-04T09:34:16;-7.10;59.30
74294;DHT22;64044;59.904;10.738;2023-12-04T09:36:43;-7.00;59.40
74294;DHT22;64044;59.904;10.738;2023-12-04T09:39:09;-7.00;59.30
74294;DHT22;64044;59.904;10.738;2023-12-04T09:41:37;-6.90;59.30
74294;DHT22;64044;59.904;10.738;2023-12-04T09:44:03;-6.90;59.20
74294;DHT22;64044;59.904;10.738;2023-12-04T09:46:29;-6.90;59.20
74294;DHT22;64044;59.904;10.738;2023-12-04T09:48:56;-6.90;59.20
74294;DHT22;64044;59.904;10.738;2023-12-04T09:51:23;-6.80;59.50
74294;DHT22;64044;59.904;10.738;2023-12-04T09:53:51;-6.80;59.50
74294;DHT22;64044;59.904;10.738;2023-12-04T09:56:18;-6.70;59.70
74294;DHT22;64044;59.904;10.738;2023-12-04T09:58:45;-6.60;59.60
74294;DHT22;64044;59.904;10.738;2023-12-04T10:01:13;-6.50;59.70
74294;DHT22;64044;59.904;10.738;2023-12-04T10:03:40;-6.30;59.80
74294;DHT22;64044;59.904;10.738;2023-12-04T10:06:08;-6.20;59.70
74294;DHT22;64044;59.904;10.738;2023-12-04T10:08:34;-6.10;59.80
74294;DHT22;64044;59.904;10.738;2023-12-04T10:10:59;-5.90;59.80
74294;DHT22;64044;59.904;10.738;2023-12-04T10:13:27;-5.70;59.70
74294;DHT22;64044;59.904;10.738;2023-12-04T10:15:53;-5.50;59.80
74294;DHT22;64044;59.904;10.738;2023-12-04T10:18:30;-5.30;59.80
74294;DHT22;64044;59.904;10.738;2023-12-04T10:20:57;-5.10;59.70
74294;DHT22;64044;59.904;10.738;2023-12-04T10:23:43;-4.80;59.70
74294;DHT22;64044;59.904;10.738;2023-12-04T10:26:08;-4.60;59.20
74294;DHT22;64044;59.904;10.738;2023-12-04T10:28:35;-4.40;59.20
74294;DHT22;64044;59.904;10.738;2023-12-04T10:31:01;-4.20;58.80
74294;DHT22;64044;59.904;10.738;2023-12-04T10:33:29;-4.00;58.40
74294;DHT22;64044;59.904;10.738;2023-12-04T10:35:56;-3.80;58.10
74294;DHT22;64044;59.904;10.738;2023-12-04T10:38:22;-3.70;58.30
74294;DHT22;64044;59.904;10.738;2023-12-04T10:40:48;-3.50;58.20
74294;DHT22;64044;59.904;10.738;2023-12-04T10:43:18;-3.30;58.80
74294;DHT22;64044;59.904;10.738;2023-12-04T10:45:46;-3.20;57.70
74294;DHT22;64044;59.904;10.738;2023-12-04T10:48:13;-3.00;57.50
74294;DHT22;64044;59.904;10.738;2023-12-04T10:50:45;-2.90;57.30
74294;DHT22;64044;59.904;10.738;2023-12-04T10:53:13;-2.60;57.70
74294;DHT22;64044;59.904;10.738;2023-12-04T10:55:40;-2.40;57.70
74294;DHT22;64044;59.904;10.738;2023-12-04T10:58:09;-2.10;57.60
74294;DHT22;64044;59.904;10.738;2023-12-04T11:00:41;-1.80;57.30
74294;DHT22;64044;59.904;10.738;2023-12-04T11:03:09;-1.50;57.20
74294;DHT22;64044;59.904;10.738;2023-12-04T11:05:39;-1.10;57.60
74294;DHT22;64044;59.904;10.738;2023-12-04T11:08:06;-0.70;57.00
74294;DHT22;64044;59.904;10.738;2023-12-04T11:10:33;-0.30;56.80
74294;DHT22;64044;59.904;10.738;2023-12-04T11:13:06;0.00;56.20
74294;DHT22;64044;59.904;10.738;2023-12-04T11:15:40;0.40;55.90
74294;DHT22;64044;59.904;10.738;2023-12-04T11:18:12;0.70;55.40
74294;DHT22;64044;59.904;10.738;2023-12-04T11:20:48;1.10;54.60
74294;DHT22;64044;59.904;10.738;2023-12-04T11:23:16;1.40;54.80
74294;DHT22;64044;59.904;10.738;2023-12-04T11:25:44;1.70;54.90
74294;DHT22;64044;59.904;10.738;2023-12-04T11:28:10;2.00;53.50
74294;DHT22;64044;59.904;10.738;2023-12-04T11:30:37;2.30;53.00
74294;DHT22;64044;59.904;10.738;2023-12-04T11:33:05;2.60;52.50
74294;DHT22;64044;59.904;10.738;2023-12-04T11:35:32;2.80;51.80
74294;DHT22;64044;59.904;10.738;2023-12-04T11:37:58;3.00;51.00
74294;DHT22;64044;59.904;10.738;2023-12-04T11:40:25;3.20;49.60
74294;DHT22;64044;59.904;10.738;2023-12-04T11:42:52;3.40;49.70
74294;DHT22;64044;59.904;10.738;2023-12-04T11:45:21;3.60;48.90
74294;DHT22;64044;59.904;10.738;2023-12-04T11:50:16;4.00;48.10
74294;DHT22;64044;59.904;10.738;2023-12-04T11:52:42;4.10;48.00
74294;DHT22;64044;59.904;10.738;2023-12-04T11:55:08;4.30;48.60
74294;DHT22;64044;59.904;10.738;2023-12-04T11:57:41;4.50;47.10
74294;DHT22;64044;59.904;10.738;2023-12-04T12:00:22;4.60;46.40
74294;DHT22;64044;59.904;10.738;2023-12-04T12:05:19;4.80;46.10
74294;DHT22;64044;59.904;10.738;2023-12-04T12:07:46;5.00;46.30
74294;DHT22;64044;59.904;10.738;2023-12-04T12:10:12;5.00;46.50
74294;DHT22;64044;59.904;10.738;2023-12-04T12:12:41;5.10;46.00
74294;DHT22;64044;59.904;10.738;2023-12-04T12:15:11;5.20;45.70
74294;DHT22;64044;59.904;10.738;2023-12-04T12:17:38;5.30;44.30
74294;DHT22;64044;59.904;10.738;2023-12-04T12:20:08;5.30;44.70
74294;DHT22;64044;59.904;10.738;2023-12-04T12:22:36;5.40;44.50
74294;DHT22;64044;59.904;10.738;2023-12-04T12:25:04;5.40;44.10
74294;DHT22;64044;59.904;10.738;2023-12-04T12:27:30;5.50;43.30
74294;DHT22;64044;59.904;10.738;2023-12-04T12:29:56;5.50;42.70
74294;DHT22;64044;59.904;10.738;2023-12-04T12:32:22;5.60;43.50
74294;DHT22;64044;59.904;10.738;2023-12-04T12:34:48;5.50;43.90
74294;DHT22;64044;59.904;10.738;2023-12-04T12:37:14;5.60;43.30
74294;DHT22;64044;59.904;10.738;2023-12-04T12:39:40;5.60;42.80
74294;DHT22;64044;59.904;10.738;2023-12-04T12:42:06;5.60;42.60
74294;DHT22;64044;59.904;10.738;2023-12-04T12:44:40;5.60;42.00
74294;DHT22;64044;59.904;10.738;2023-12-04T12:47:06;5.60;41.80
74294;DHT22;64044;59.904;10.738;2023-12-04T12:49:33;5.70;41.80
74294;DHT22;64044;59.904;10.738;2023-12-04T12:52:01;5.70;41.10
74294;DHT22;64044;59.904;10.738;2023-12-04T12:54:27;5.60;41.70
74294;DHT22;64044;59.904;10.738;2023-12-04T12:56:53;5.70;41.90
74294;DHT22;64044;59.904;10.738;2023-12-04T12:59:44;5.70;41.50
74294;DHT22;64044;59.904;10.738;2023-12-04T13:02:10;5.70;42.10
74294;DHT22;64044;59.904;10.738;2023-12-04T13:04:43;5.70;42.00
74294;DHT22;64044;59.904;10.738;2023-12-04T13:07:08;5.60;40.70
74294;DHT22;64044;59.904;10.738;2023-12-04T13:09:35;5.60;41.50
74294;DHT22;64044;59.904;10.738;2023-12-04T13:12:04;5.50;41.40
74294;DHT22;64044;59.904;10.738;2023-12-04T13:14:31;5.40;41.30
74294;DHT22;64044;59.904;10.738;2023-12-04T13:16:57;5.40;41.00
74294;DHT22;64044;59.904;10.738;2023-12-04T13:19:23;5.20;40.50
74294;DHT22;64044;59.904;10.738;2023-12-04T13:21:49;5.10;40.40
74294;DHT22;64044;59.904;10.738;2023-12-04T13:24:16;5.00;40.90
74294;DHT22;64044;59.904;10.738;2023-12-04T13:26:43;4.80;40.20
74294;DHT22;64044;59.904;10.738;2023-12-04T13:29:08;4.70;40.50
74294;DHT22;64044;59.904;10.738;2023-12-04T13:31:35;4.60;40.80
74294;DHT22;64044;59.904;10.738;2023-12-04T13:34:00;4.40;41.00
74294;DHT22;64044;59.904;10.738;2023-12-04T13:36:26;4.30;41.00
74294;DHT22;64044;59.904;10.738;2023-12-04T13:38:53;4.10;41.10
74294;DHT22;64044;59.904;10.738;2023-12-04T13:41:19;4.00;41.00
74294;DHT22;64044;59.904;10.738;2023-12-04T13:44:03;3.80;41.10
74294;DHT22;64044;59.904;10.738;2023-12-04T13:46:29;3.60;41.40
74294;DHT22;64044;59.904;10.738;2023-12-04T13:48:56;3.40;41.50
74294;DHT22;64044;59.904;10.738;2023-12-04T13:51:21;3.10;41.50
74294;DHT22;64044;59.904;10.738;2023-12-04T13:53:48;2.90;41.60
74294;DHT22;64044;59.904;10.738;2023-12-04T13:56:16;2.70;41.70
74294;DHT22;64044;59.904;10.738;2023-12-04T13:59:11;2.40;41.60
74294;DHT22;64044;59.904;10.738;2023-12-04T14:01:44;2.00;41.70
74294;DHT22;64044;59.904;10.738;2023-12-04T14:04:10;1.70;41.60
74294;DHT22;64044;59.904;10.738;2023-12-04T14:06:35;1.30;41.80
74294;DHT22;64044;59.904;10.738;2023-12-04T14:09:01;0.90;41.90
74294;DHT22;64044;59.904;10.738;2023-12-04T14:11:30;0.50;42.10
74294;DHT22;64044;59.904;10.738;2023-12-04T14:13:55;0.10;42.50
74294;DHT22;64044;59.904;10.738;2023-12-04T14:16:21;-0.20;42.70
74294;DHT22;64044;59.904;10.738;2023-12-04T14:18:47;-0.60;43.10
74294;DHT22;64044;59.904;10.738;2023-12-04T14:21:12;-0.90;43.50
74294;DHT22;64044;59.904;10.738;2023-12-04T14:23:38;-1.30;43.90
74294;DHT22;64044;59.904;10.738;2023-12-04T14:26:04;-1.50;44.30
74294;DHT22;64044;59.904;10.738;2023-12-04T14:28:30;-1.80;44.60
74294;DHT22;64044;59.904;10.738;2023-12-04T14:30:55;-2.10;45.00
74294;DHT22;64044;59.904;10.738;2023-12-04T14:33:21;-2.40;45.60
74294;DHT22;64044;59.904;10.738;2023-12-04T14:35:47;-2.60;45.80
74294;DHT22;64044;59.904;10.738;2023-12-04T14:38:13;-2.80;46.10
74294;DHT22;64044;59.904;10.738;2023-12-04T14:40:40;-3.00;46.60
74294;DHT22;64044;59.904;10.738;2023-12-04T14:43:06;-3.20;47.20
74294;DHT22;64044;59.904;10.738;2023-12-04T14:45:37;-3.40;47.50
74294;DHT22;64044;59.904;10.738;2023-12-04T14:48:03;-3.60;47.90
74294;DHT22;64044;59.904;10.738;2023-12-04T14:50:35;-3.80;48.00
74294;DHT22;64044;59.904;10.738;2023-12-04T14:53:03;-3.90;48.30
74294;DHT22;64044;59.904;10.738;2023-12-04T14:55:47;-4.00;48.50
74294;DHT22;64044;59.904;10.738;2023-12-04T14:58:31;-4.20;48.30
74294;DHT22;64044;59.904;10.738;2023-12-04T15:01:10;-4.40;48.90
74294;DHT22;64044;59.904;10.738;2023-12-04T15:03:36;-4.50;49.90
74294;DHT22;64044;59.904;10.738;2023-12-04T15:06:01;-4.60;49.80
74294;DHT22;64044;59.904;10.738;2023-12-04T15:08:46;-4.70;49.70
74294;DHT22;64044;59.904;10.738;2023-12-04T15:11:12;-4.80;49.50
74294;DHT22;64044;59.904;10.738;2023-12-04T15:13:49;-4.90;49.50
74294;DHT22;64044;59.904;10.738;2023-12-04T15:16:30;-5.10;49.60
74294;DHT22;64044;59.904;10.738;2023-12-04T15:19:09;-5.20;50.80
74294;DHT22;64044;59.904;10.738;2023-12-04T15:21:37;-5.20;50.80
74294;DHT22;64044;59.904;10.738;2023-12-04T15:24:03;-5.30;51.30